Погода Сологовскоена неделю

Тверская область, Россия

24 - 30 мая
  • 24мая
    Сегодня
    +8°
    +23°
    Ясно и безоблачно
    ВремяПогодаТемператураВлажностьДавлениеВетер, м/сВероятность осадков
    00:00Ясно и безоблачно+8°C55 %761 мм0.3 м/с2 %
    03:00Ясно и безоблачно+5°C62 %761 мм0.6 м/с2 %
    06:00Ясно и безоблачно+10°C64 %762 мм1.0 м/с2 %
    09:00Ясно и безоблачно+17°C49 %762 мм1.4 м/с2 %
    12:00Небольшая облачность+22°C38 %762 мм1.7 м/с2 %
    15:00Ясно и безоблачно+23°C35 %761 мм1.8 м/с2 %
    18:00Ясно и безоблачно+23°C35 %760 мм1.5 м/с2 %
    21:00Ясно и безоблачно+15°C51 %760 мм0.5 м/с2 %
  • 25мая
    Суббота
    +10°
    +23°
    Ясно и безоблачно
    ВремяПогодаТемператураВлажностьДавлениеВетер, м/сВероятность осадков
    00:00Ясно и безоблачно+10°C59 %760 мм0.7 м/с2 %
    03:00Ясно и безоблачно+8°C62 %760 мм0.9 м/с2 %
    06:00Ясно и безоблачно+12°C64 %760 мм1.3 м/с2 %
    09:00Ясно и безоблачно+19°C47 %760 мм1.8 м/с2 %
    12:00Практически безоблачно+21°C32 %759 мм2.6 м/с2 %
    15:00Ясно и безоблачно+22°C28 %757 мм2.8 м/с2 %
    18:00Ясно и безоблачно+23°C32 %756 мм2.1 м/с2 %
    21:00Ясно и безоблачно+16°C48 %755 мм0.8 м/с2 %
  • 26мая
    Воскресенье
    +5°
    +21°
    Небольшая облачность
    ВремяПогодаТемператураВлажностьДавлениеВетер, м/сВероятность осадков
    00:00Ясно и безоблачно+12°C56 %755 мм1.0 м/с2 %
    03:00Ясно и безоблачно+10°C68 %755 мм0.7 м/с3 %
    06:00Небольшая облачность+13°C75 %755 мм0.7 м/с18 %
    09:00Пасмурно, небольшой дождь+18°C77 %756 мм1.5 м/с39 %
    12:00Облачно с прояснениями+20°C64 %757 мм2.2 м/с49 %
    15:00Небольшая облачность+20°C43 %757 мм2.5 м/с24 %
    18:00Практически безоблачно+19°C42 %757 мм2.2 м/с5 %
    21:00Ясно и безоблачно+13°C48 %758 мм0.8 м/с2 %
  • 27мая
    Понедельник
    +6°
    +20°
    Практически безоблачно
    ВремяПогодаТемператураВлажностьДавлениеВетер, м/сВероятность осадков
    00:00Ясно и безоблачно+7°C55 %759 мм0.7 м/с2 %
    03:00Ясно и безоблачно+6°C65 %760 мм0.5 м/с2 %
    06:00Ясно и безоблачно+9°C65 %761 мм0.7 м/с2 %
    09:00Практически безоблачно+16°C39 %762 мм1.1 м/с2 %
    12:00Небольшая облачность+18°C35 %762 мм1.4 м/с2 %
    15:00Практически безоблачно+19°C35 %761 мм1.4 м/с2 %
    18:00Ясно и безоблачно+20°C35 %760 мм1.2 м/с2 %
    21:00Ясно и безоблачно+13°C59 %759 мм0.3 м/с2 %
  • 28мая
    Вторник
    +9°
    +25°
    Ясно и безоблачно
    ВремяПогодаТемператураВлажностьДавлениеВетер, м/сВероятность осадков
    00:00Ясно и безоблачно+8°C75 %759 мм0.5 м/с2 %
    03:00Ясно и безоблачно+7°C78 %759 мм0.5 м/с2 %
    06:00Ясно и безоблачно+11°C69 %759 мм0.8 м/с2 %
    09:00Ясно и безоблачно+19°C50 %759 мм1.0 м/с2 %
    12:00Ясно и безоблачно+23°C37 %759 мм1.5 м/с2 %
    15:00Ясно и безоблачно+24°C35 %758 мм1.6 м/с2 %
    18:00Ясно и безоблачно+24°C37 %757 мм1.3 м/с2 %
    21:00Ясно и безоблачно+17°C52 %756 мм0.5 м/с2 %
Мы используем cookies
Соглашаюсь